createdAt,value
2018-03-26T00:00:09.713Z,97088.41
2018-03-26T00:00:41.341Z,97091.81
2018-03-26T00:01:12.966Z,97090.47
2018-03-26T00:01:44.589Z,97093.77
2018-03-26T00:02:16.275Z,97089.16
2018-03-26T00:02:47.902Z,97090.75
2018-03-26T00:03:19.537Z,97092.50
2018-03-26T00:03:51.206Z,97086.11
2018-03-26T00:04:22.830Z,97091.22
2018-03-26T00:04:54.454Z,97086.11
2018-03-26T00:05:26.078Z,97091.63
2018-03-26T00:05:57.702Z,97088.20
2018-03-26T00:06:29.332Z,97088.64
2018-03-26T00:07:00.959Z,97083.16
2018-03-26T00:07:32.586Z,97089.87
2018-03-26T00:08:04.249Z,97092.50
2018-03-26T00:08:35.875Z,97084.91
2018-03-26T00:09:07.503Z,97087.38
2018-03-26T00:09:39.170Z,97094.53
2018-03-26T00:10:10.795Z,97092.05
2018-03-26T00:10:42.422Z,97089.50
2018-03-26T00:11:14.091Z,97087.38
2018-03-26T00:11:45.718Z,97091.20
2018-03-26T00:12:17.354Z,97089.52
2018-03-26T00:12:48.987Z,97087.91
2018-03-26T00:13:20.654Z,97088.73
2018-03-26T00:13:52.282Z,97090.35
2018-03-26T00:14:23.906Z,97087.31
2018-03-26T00:14:55.534Z,97083.20
2018-03-26T00:15:27.158Z,97075.07
2018-03-26T00:15:58.795Z,97087.45
2018-03-26T00:16:30.443Z,97081.93
2018-03-26T00:17:02.067Z,97082.30
2018-03-26T00:17:33.694Z,97080.91
2018-03-26T00:18:05.317Z,97081.84
2018-03-26T00:18:36.982Z,97078.88
2018-03-26T00:19:08.610Z,97090.78
2018-03-26T00:19:40.238Z,97079.30
2018-03-26T00:20:11.862Z,97086.09
2018-03-26T00:20:43.551Z,97082.34
2018-03-26T00:21:15.173Z,97081.09
2018-03-26T00:21:46.817Z,97084.08
2018-03-26T00:22:18.459Z,97084.41
2018-03-26T00:22:50.086Z,97083.54
2018-03-26T00:23:21.743Z,97081.84
2018-03-26T00:23:53.370Z,97083.58
2018-03-26T00:24:25.021Z,97077.69
2018-03-26T00:24:56.654Z,97080.17
2018-03-26T00:25:28.282Z,97079.38
2018-03-26T00:25:59.946Z,97082.22
2018-03-26T00:26:31.615Z,97078.30
2018-03-26T00:27:03.242Z,97086.01
2018-03-26T00:27:34.885Z,97082.59
2018-03-26T00:28:06.506Z,97083.91
2018-03-26T00:28:38.130Z,97084.30
2018-03-26T00:29:09.758Z,97090.28
2018-03-26T00:29:41.386Z,97083.06
2018-03-26T00:30:13.047Z,97084.33
2018-03-26T00:30:44.674Z,97080.56
2018-03-26T00:31:16.355Z,97085.66
2018-03-26T00:31:47.983Z,97083.91
2018-03-26T00:32:19.614Z,97083.11
2018-03-26T00:32:51.278Z,97080.56
2018-03-26T00:33:22.897Z,97080.58
2018-03-26T00:33:54.530Z,97086.54
2018-03-26T00:34:26.154Z,97080.91
2018-03-26T00:34:57.782Z,97082.22
2018-03-26T00:35:29.406Z,97082.22
2018-03-26T00:36:01.070Z,97082.77
2018-03-26T00:36:32.703Z,97076.78
2018-03-26T00:37:04.335Z,97081.41
2018-03-26T00:37:35.998Z,97079.80
2018-03-26T00:38:07.630Z,97078.89
2018-03-26T00:38:39.253Z,97082.22
2018-03-26T00:39:10.877Z,97080.49
2018-03-26T00:39:42.506Z,97080.89
2018-03-26T00:40:14.134Z,97075.81
2018-03-26T00:40:45.762Z,97075.47
2018-03-26T00:41:17.393Z,97081.93
2018-03-26T00:41:49.025Z,97081.55
2018-03-26T00:42:20.667Z,97083.64
2018-03-26T00:42:52.334Z,97075.12
2018-03-26T00:43:23.962Z,97080.14
2018-03-26T00:43:55.586Z,97079.31
2018-03-26T00:44:27.209Z,97078.95
2018-03-26T00:44:58.833Z,97083.13
2018-03-26T00:45:30.498Z,97086.09
2018-03-26T00:46:02.119Z,97084.77
2018-03-26T00:46:33.741Z,97084.75
2018-03-26T00:47:05.366Z,97089.84
2018-03-26T00:47:36.990Z,97081.34
2018-03-26T00:48:08.614Z,97084.73
2018-03-26T00:48:40.238Z,97080.49
2018-03-26T00:49:11.928Z,97082.19
2018-03-26T00:49:43.555Z,97082.20
2018-03-26T00:50:15.186Z,97086.84
2018-03-26T00:50:46.819Z,97082.17
2018-03-26T00:51:18.450Z,97084.25
2018-03-26T00:51:50.082Z,97080.91
2018-03-26T00:52:21.707Z,97087.22
2018-03-26T00:52:53.337Z,97086.36
2018-03-26T00:53:24.967Z,97086.42
2018-03-26T00:53:56.650Z,97082.22
2018-03-26T00:54:28.278Z,97080.22
2018-03-26T00:54:59.902Z,97078.44
2018-03-26T00:55:31.526Z,97083.54
2018-03-26T00:56:03.151Z,97081.87
2018-03-26T00:56:34.778Z,97082.36
2018-03-26T00:57:06.434Z,97085.31
2018-03-26T00:57:38.068Z,97087.48
2018-03-26T00:58:09.699Z,97082.02
2018-03-26T00:58:41.327Z,97082.06
2018-03-26T00:59:12.998Z,97088.42
2018-03-26T00:59:44.622Z,97084.67
2018-03-26T01:00:16.246Z,97083.46
2018-03-26T01:00:47.874Z,97073.03
2018-03-26T01:01:19.494Z,97091.83
2018-03-26T01:01:51.123Z,97093.09
2018-03-26T01:02:22.754Z,97086.73
2018-03-26T01:02:54.378Z,97085.09
2018-03-26T01:03:26.003Z,97084.75
2018-03-26T01:03:57.630Z,97079.17
2018-03-26T01:04:29.298Z,97085.62
2018-03-26T01:05:00.922Z,97080.91
2018-03-26T01:05:32.545Z,97079.31
2018-03-26T01:06:04.174Z,97084.77
2018-03-26T01:06:35.820Z,97084.41
2018-03-26T01:07:07.450Z,97081.86
2018-03-26T01:07:39.074Z,97082.30
2018-03-26T01:08:10.751Z,97083.13
2018-03-26T01:08:42.399Z,97086.97
2018-03-26T01:09:14.026Z,97085.19
2018-03-26T01:09:45.706Z,97085.27
2018-03-26T01:10:17.334Z,97081.36
2018-03-26T01:10:48.958Z,97084.73
2018-03-26T01:11:20.586Z,97086.89
2018-03-26T01:11:52.211Z,97078.81
2018-03-26T01:12:23.834Z,97086.80
2018-03-26T01:12:55.461Z,97083.80
2018-03-26T01:13:27.089Z,97079.23
2018-03-26T01:13:58.718Z,97083.89
2018-03-26T01:14:30.342Z,97087.14
2018-03-26T01:15:02.011Z,97083.33
2018-03-26T01:15:33.634Z,97086.28
2018-03-26T01:16:05.267Z,97090.09
2018-03-26T01:16:36.893Z,97082.02
2018-03-26T01:17:08.518Z,97087.40
2018-03-26T01:17:40.149Z,97087.38
2018-03-26T01:18:11.779Z,97087.90
2018-03-26T01:18:43.405Z,97084.56
2018-03-26T01:19:15.079Z,97086.45
2018-03-26T01:19:46.719Z,97087.31
2018-03-26T01:20:18.342Z,97090.78
2018-03-26T01:20:49.970Z,97082.80
2018-03-26T01:21:21.594Z,97082.56
2018-03-26T01:21:53.218Z,97084.93
2018-03-26T01:22:24.847Z,97089.40
2018-03-26T01:22:56.478Z,97085.17
2018-03-26T01:23:28.106Z,97090.27
2018-03-26T01:23:59.733Z,97089.84
2018-03-26T01:24:31.402Z,97080.51
2018-03-26T01:25:03.031Z,97080.14
2018-03-26T01:25:34.658Z,97084.91
2018-03-26T01:26:06.281Z,97085.54
2018-03-26T01:26:37.915Z,97084.17
2018-03-26T01:27:09.586Z,97084.19
2018-03-26T01:27:41.211Z,97088.48
2018-03-26T01:28:12.850Z,97082.56
2018-03-26T01:28:44.478Z,97087.16
2018-03-26T01:29:16.106Z,97088.48
2018-03-26T01:29:47.776Z,97093.09
2018-03-26T01:30:19.402Z,97084.58
2018-03-26T01:30:51.027Z,97084.59
2018-03-26T01:31:22.695Z,97082.45
2018-03-26T01:31:54.325Z,97083.38
2018-03-26T01:32:25.957Z,97088.31
2018-03-26T01:32:57.585Z,97082.87
2018-03-26T01:33:29.214Z,97083.33
2018-03-26T01:34:00.837Z,97082.48
2018-03-26T01:34:32.462Z,97083.83
2018-03-26T01:35:04.085Z,97087.58
2018-03-26T01:35:35.715Z,97084.95
2018-03-26T01:36:07.378Z,97084.16
2018-03-26T01:36:39.007Z,97089.61
2018-03-26T01:37:10.670Z,97096.84
2018-03-26T01:37:42.302Z,97093.52
2018-03-26T01:38:13.925Z,97087.28
2018-03-26T01:38:45.551Z,97085.54
2018-03-26T01:39:17.174Z,97086.36
2018-03-26T01:39:48.797Z,97095.19
2018-03-26T01:40:20.433Z,97095.13
2018-03-26T01:40:52.101Z,97097.22
2018-03-26T01:41:23.721Z,97095.55
2018-03-26T01:41:55.391Z,97091.28
2018-03-26T01:42:27.018Z,97096.03
2018-03-26T01:42:58.646Z,97091.88
2018-03-26T01:43:30.274Z,97097.40
2018-03-26T01:44:01.897Z,97096.64
2018-03-26T01:44:33.578Z,97091.55
2018-03-26T01:45:05.241Z,97088.92
2018-03-26T01:45:36.865Z,97094.54
2018-03-26T01:46:08.494Z,97089.42
2018-03-26T01:46:40.123Z,97086.02
2018-03-26T01:47:11.751Z,97087.67
2018-03-26T01:47:43.378Z,97086.48
2018-03-26T01:48:15.015Z,97085.96
2018-03-26T01:48:46.646Z,97086.46
2018-03-26T01:49:18.279Z,97087.30
2018-03-26T01:49:49.907Z,97083.49
2018-03-26T01:50:21.564Z,97091.11
2018-03-26T01:50:53.226Z,97087.22
2018-03-26T01:51:25.318Z,97080.95
2018-03-26T01:51:56.948Z,97080.91
2018-03-26T01:52:28.581Z,97083.49
2018-03-26T01:53:00.266Z,97080.16
2018-03-26T01:53:31.890Z,97077.19
2018-03-26T01:54:03.569Z,97081.00
2018-03-26T01:54:35.190Z,97081.36
2018-03-26T01:55:06.819Z,97083.57
2018-03-26T01:55:38.445Z,97084.78
2018-03-26T01:56:10.070Z,97081.44
2018-03-26T01:56:41.698Z,97082.64
2018-03-26T01:57:13.328Z,97083.89
2018-03-26T01:57:44.958Z,97082.58
2018-03-26T01:58:16.581Z,97090.70
2018-03-26T01:58:48.210Z,97080.60
2018-03-26T01:59:19.882Z,97087.83
2018-03-26T01:59:51.507Z,97079.83
2018-03-26T02:00:23.134Z,97083.57
2018-03-26T02:00:54.764Z,97084.41
2018-03-26T02:01:26.390Z,97083.55
2018-03-26T02:01:58.018Z,97086.01
2018-03-26T02:02:29.649Z,97089.92
2018-03-26T02:03:01.279Z,97091.22
2018-03-26T02:03:32.906Z,97085.78
2018-03-26T02:04:04.577Z,97087.42
2018-03-26T02:04:36.206Z,97084.88
2018-03-26T02:05:07.834Z,97090.88
2018-03-26T02:05:39.503Z,97093.80
2018-03-26T02:06:11.131Z,97088.34
2018-03-26T02:06:42.754Z,97092.18
2018-03-26T02:07:14.378Z,97089.28
2018-03-26T02:07:46.006Z,97087.57
2018-03-26T02:08:17.634Z,97093.42
2018-03-26T02:08:49.258Z,97092.16
2018-03-26T02:09:20.881Z,97087.05
2018-03-26T02:09:52.507Z,97090.12
2018-03-26T02:10:24.178Z,97084.09
2018-03-26T02:10:55.803Z,97087.05
2018-03-26T02:11:27.431Z,97089.60
2018-03-26T02:11:59.062Z,97089.18
2018-03-26T02:12:30.685Z,97088.33
2018-03-26T02:13:02.309Z,97085.86
2018-03-26T02:13:33.931Z,97093.36
2018-03-26T02:14:05.644Z,97095.54
2018-03-26T02:14:37.310Z,97091.67
2018-03-26T02:15:08.937Z,97084.88
2018-03-26T02:15:40.562Z,97095.05
2018-03-26T02:16:12.247Z,97089.60
2018-03-26T02:16:43.870Z,97092.09
2018-03-26T02:17:15.498Z,97093.44
2018-03-26T02:17:47.126Z,97090.12
2018-03-26T02:18:18.750Z,97089.30
2018-03-26T02:18:50.378Z,97092.25
2018-03-26T02:19:22.046Z,97095.20
2018-03-26T02:19:53.678Z,97093.02
2018-03-26T02:20:25.305Z,97093.88
2018-03-26T02:20:56.930Z,97096.06
2018-03-26T02:21:28.558Z,97088.84
2018-03-26T02:22:00.264Z,97094.44
2018-03-26T02:22:31.890Z,97087.64
2018-03-26T02:23:03.608Z,97096.42
2018-03-26T02:23:35.278Z,97087.13
2018-03-26T02:24:06.910Z,97092.60
2018-03-26T02:24:38.533Z,97087.83
2018-03-26T02:25:10.163Z,97089.02
2018-03-26T02:25:41.794Z,97088.94
2018-03-26T02:26:13.426Z,97087.67
2018-03-26T02:26:45.108Z,97082.20
2018-03-26T02:27:16.711Z,97091.05
2018-03-26T02:27:48.386Z,97088.58
2018-03-26T02:28:20.014Z,97092.52
2018-03-26T02:28:51.642Z,97087.75
2018-03-26T02:29:23.271Z,97090.64
2018-03-26T02:29:54.893Z,97094.45
2018-03-26T02:30:26.522Z,97085.51
2018-03-26T02:30:58.157Z,97091.45
2018-03-26T02:31:29.794Z,97086.01
2018-03-26T02:32:01.424Z,97083.89
2018-03-26T02:32:33.051Z,97090.56
2018-03-26T02:33:04.726Z,97086.27
2018-03-26T02:33:36.358Z,97080.00
2018-03-26T02:34:07.986Z,97086.78
2018-03-26T02:34:39.618Z,97081.72
2018-03-26T02:35:11.290Z,97081.69
2018-03-26T02:35:42.914Z,97087.63
2018-03-26T02:36:14.539Z,97083.84
2018-03-26T02:36:46.174Z,97080.95
2018-03-26T02:37:17.798Z,97081.02
2018-03-26T02:37:49.427Z,97086.91
2018-03-26T02:38:21.055Z,97080.10
2018-03-26T02:38:52.679Z,97081.37
2018-03-26T02:39:24.312Z,97081.37
2018-03-26T02:39:55.983Z,97077.62
2018-03-26T02:40:27.607Z,97087.91
2018-03-26T02:40:59.229Z,97085.70
2018-03-26T02:41:30.850Z,97083.77
2018-03-26T02:42:02.496Z,97089.89
2018-03-26T02:42:34.132Z,97085.89
2018-03-26T02:43:05.758Z,97088.10
2018-03-26T02:43:37.383Z,97097.20
2018-03-26T02:44:09.020Z,97094.00
2018-03-26T02:44:40.699Z,97092.46
2018-03-26T02:45:12.402Z,97088.40
2018-03-26T02:45:44.031Z,97100.37
2018-03-26T02:46:15.658Z,97089.41
2018-03-26T02:46:47.283Z,97090.36
2018-03-26T02:47:18.914Z,97093.41
2018-03-26T02:47:50.539Z,97096.05
2018-03-26T02:48:22.205Z,97097.42
2018-03-26T02:48:53.826Z,97094.88
2018-03-26T02:49:25.452Z,97099.63
2018-03-26T02:49:57.077Z,97095.55
2018-03-26T02:50:28.702Z,97091.67
2018-03-26T02:51:00.363Z,97094.66
2018-03-26T02:51:31.999Z,97088.80
2018-03-26T02:52:03.640Z,97091.33
2018-03-26T02:52:35.275Z,97098.18
2018-03-26T02:53:06.910Z,97093.70
2018-03-26T02:53:38.578Z,97102.34
2018-03-26T02:54:10.209Z,97092.67
2018-03-26T02:54:41.833Z,97095.47
2018-03-26T02:55:13.455Z,97102.39
2018-03-26T02:55:45.082Z,97100.13
2018-03-26T02:56:16.711Z,97103.41
2018-03-26T02:56:48.344Z,97099.69
2018-03-26T02:57:19.975Z,97105.45
2018-03-26T02:57:51.602Z,97102.48
2018-03-26T02:58:23.230Z,97099.61
2018-03-26T02:58:54.899Z,97102.73
2018-03-26T02:59:26.523Z,97098.61
2018-03-26T02:59:58.191Z,97101.69
2018-03-26T03:00:29.823Z,97094.61
2018-03-26T03:01:01.449Z,97099.44
2018-03-26T03:01:33.079Z,97102.08
2018-03-26T03:02:04.746Z,97100.85
2018-03-26T03:02:36.369Z,97102.19
2018-03-26T03:03:08.002Z,97098.43
2018-03-26T03:03:39.634Z,97101.09
2018-03-26T03:04:11.263Z,97102.44
2018-03-26T03:04:42.898Z,97105.00
2018-03-26T03:05:14.521Z,97097.34
2018-03-26T03:05:46.187Z,97104.16
2018-03-26T03:06:17.819Z,97105.92
2018-03-26T03:06:49.455Z,97102.61
2018-03-26T03:07:21.091Z,97103.05
2018-03-26T03:07:52.762Z,97097.59
2018-03-26T03:08:24.398Z,97097.93
2018-03-26T03:08:56.025Z,97103.86
2018-03-26T03:09:27.649Z,97097.52
2018-03-26T03:09:59.322Z,97093.78
2018-03-26T03:10:30.950Z,97103.91
2018-03-26T03:11:02.569Z,97100.16
2018-03-26T03:11:34.194Z,97103.98
2018-03-26T03:12:05.822Z,97100.59
2018-03-26T03:12:37.452Z,97097.68
2018-03-26T03:13:09.074Z,97100.21
2018-03-26T03:13:40.738Z,97106.61
2018-03-26T03:14:12.362Z,97102.89
2018-03-26T03:14:44.035Z,97101.62
2018-03-26T03:15:15.662Z,97100.73
2018-03-26T03:15:47.286Z,97105.43
2018-03-26T03:16:18.914Z,97102.04
2018-03-26T03:16:50.538Z,97105.94
2018-03-26T03:17:22.168Z,97097.01
2018-03-26T03:17:53.802Z,97107.60
2018-03-26T03:18:25.474Z,97099.49
2018-03-26T03:18:57.100Z,97100.31
2018-03-26T03:19:28.773Z,97107.55
2018-03-26T03:20:00.397Z,97101.27
2018-03-26T03:20:32.024Z,97105.07
2018-03-26T03:21:03.647Z,97107.63
2018-03-26T03:21:35.270Z,97098.70
2018-03-26T03:22:06.903Z,97104.63
2018-03-26T03:22:38.581Z,97099.49
2018-03-26T03:23:10.185Z,97103.39
2018-03-26T03:23:41.809Z,97106.77
2018-03-26T03:24:13.434Z,97106.85
2018-03-26T03:24:45.122Z,97106.85
2018-03-26T03:25:16.746Z,97106.84
2018-03-26T03:25:48.374Z,97104.30
2018-03-26T03:26:19.998Z,97101.28
2018-03-26T03:26:51.625Z,97096.99
2018-03-26T03:27:23.250Z,97106.38
2018-03-26T03:27:54.882Z,97107.20
2018-03-26T03:28:26.514Z,97105.56
2018-03-26T03:28:58.138Z,97109.40
2018-03-26T03:29:29.762Z,97108.91
2018-03-26T03:30:01.430Z,97111.88
2018-03-26T03:30:33.063Z,97108.11
2018-03-26T03:31:04.752Z,97111.52
2018-03-26T03:31:36.375Z,97109.91
2018-03-26T03:32:08.032Z,97115.41
2018-03-26T03:32:39.663Z,97110.33
2018-03-26T03:33:11.290Z,97110.33
2018-03-26T03:33:42.919Z,97109.98
2018-03-26T03:34:14.546Z,97109.92
2018-03-26T03:34:46.171Z,97106.58
2018-03-26T03:35:17.794Z,97105.81
2018-03-26T03:35:49.422Z,97103.72
2018-03-26T03:36:21.050Z,97108.88
2018-03-26T03:36:52.679Z,97097.92
2018-03-26T03:37:24.302Z,97105.13
2018-03-26T03:37:55.930Z,97107.25
2018-03-26T03:38:27.555Z,97105.55
2018-03-26T03:38:59.187Z,97103.92
2018-03-26T03:39:30.815Z,97105.63
2018-03-26T03:40:02.443Z,97109.44
2018-03-26T03:40:34.070Z,97113.33
2018-03-26T03:41:05.693Z,97106.55
2018-03-26T03:41:37.362Z,97102.73
2018-03-26T03:42:09.030Z,97105.28
2018-03-26T03:42:40.654Z,97109.92
2018-03-26T03:43:12.286Z,97111.20
2018-03-26T03:43:43.910Z,97108.17
2018-03-26T03:44:15.534Z,97105.21
2018-03-26T03:44:47.159Z,97109.08
2018-03-26T03:45:18.782Z,97112.85
2018-03-26T03:45:50.406Z,97113.69
2018-03-26T03:46:22.030Z,97103.08
2018-03-26T03:46:53.661Z,97106.03
2018-03-26T03:47:25.326Z,97108.17
2018-03-26T03:47:56.950Z,97109.09
2018-03-26T03:48:28.619Z,97107.42
2018-03-26T03:49:00.242Z,97106.57
2018-03-26T03:49:31.870Z,97105.72
2018-03-26T03:50:03.499Z,97113.36
2018-03-26T03:50:35.122Z,97112.06
2018-03-26T03:51:06.745Z,97111.66
2018-03-26T03:51:38.373Z,97111.20
2018-03-26T03:52:10.006Z,97117.08
2018-03-26T03:52:41.647Z,97119.20
2018-03-26T03:53:13.273Z,97116.18
2018-03-26T03:53:44.942Z,97121.67
2018-03-26T03:54:16.591Z,97116.95
2018-03-26T03:54:48.235Z,97112.69
2018-03-26T03:55:19.866Z,97116.47
2018-03-26T03:55:51.495Z,97113.41
2018-03-26T03:56:23.118Z,97114.22
2018-03-26T03:56:54.742Z,97116.73
2018-03-26T03:57:26.394Z,97115.84
2018-03-26T03:57:58.026Z,97106.09
2018-03-26T03:58:29.657Z,97116.22
2018-03-26T03:59:01.354Z,97121.19
2018-03-26T03:59:32.982Z,97118.17
2018-03-26T04:00:04.668Z,97114.31
2018-03-26T04:00:36.306Z,97117.72
2018-03-26T04:01:07.930Z,97119.34
2018-03-26T04:01:39.558Z,97118.05
2018-03-26T04:02:11.186Z,97118.09
2018-03-26T04:02:42.817Z,97124.02
2018-03-26T04:03:14.442Z,97122.23
2018-03-26T04:03:46.070Z,97115.42
2018-03-26T04:04:17.730Z,97116.35
2018-03-26T04:04:49.354Z,97117.66
2018-03-26T04:05:21.028Z,97114.75
2018-03-26T04:05:52.654Z,97115.60
2018-03-26T04:06:24.282Z,97117.22
2018-03-26T04:06:55.910Z,97121.45
2018-03-26T04:07:27.534Z,97117.30
2018-03-26T04:07:59.163Z,97116.44
2018-03-26T04:08:30.794Z,97118.58
2018-03-26T04:09:02.427Z,97113.09
2018-03-26T04:09:34.058Z,97113.97
2018-03-26T04:10:05.691Z,97117.38
2018-03-26T04:10:37.358Z,97116.61
2018-03-26T04:11:08.986Z,97117.40
2018-03-26T04:11:40.610Z,97112.37
2018-03-26T04:12:12.238Z,97117.14
2018-03-26T04:12:43.864Z,97117.12
2018-03-26T04:13:15.494Z,97115.88
2018-03-26T04:13:47.122Z,97116.78
2018-03-26T04:14:18.795Z,97113.02
2018-03-26T04:14:50.426Z,97114.81
2018-03-26T04:15:22.050Z,97113.13
2018-03-26T04:15:53.726Z,97112.39
2018-03-26T04:16:25.354Z,97118.71
2018-03-26T04:16:56.978Z,97115.27
2018-03-26T04:17:28.601Z,97113.63
2018-03-26T04:18:00.231Z,97116.95
2018-03-26T04:18:31.854Z,97118.51
2018-03-26T04:19:03.485Z,97114.40
2018-03-26T04:19:35.106Z,97116.16
2018-03-26T04:20:06.734Z,97115.31
2018-03-26T04:20:38.358Z,97119.13
2018-03-26T04:21:10.026Z,97114.09
2018-03-26T04:21:41.650Z,97114.53
2018-03-26T04:22:13.273Z,97112.84
2018-03-26T04:22:44.897Z,97115.79
2018-03-26T04:23:16.521Z,97114.53
2018-03-26T04:23:48.150Z,97107.74
2018-03-26T04:24:19.774Z,97114.55
2018-03-26T04:24:51.399Z,97116.59
2018-03-26T04:25:23.022Z,97109.87
2018-03-26T04:25:54.704Z,97107.74
2018-03-26T04:26:26.330Z,97103.05
2018-03-26T04:26:57.956Z,97104.79
2018-03-26T04:27:29.586Z,97111.14
2018-03-26T04:28:01.215Z,97105.61
2018-03-26T04:28:32.846Z,97111.63
2018-03-26T04:29:04.469Z,97110.73
2018-03-26T04:29:36.094Z,97106.55
2018-03-26T04:30:07.719Z,97111.56
2018-03-26T04:30:39.342Z,97111.16
2018-03-26T04:31:11.006Z,97109.87
2018-03-26T04:31:42.630Z,97117.48
2018-03-26T04:32:14.297Z,97109.95
2018-03-26T04:32:45.927Z,97108.33
2018-03-26T04:33:17.550Z,97105.77
2018-03-26T04:33:49.178Z,97108.67
2018-03-26T04:34:20.803Z,97109.45
2018-03-26T04:34:52.426Z,97114.95
2018-03-26T04:35:24.055Z,97112.39
2018-03-26T04:35:55.682Z,97110.29
2018-03-26T04:36:27.350Z,97109.08
2018-03-26T04:36:58.999Z,97114.67
2018-03-26T04:37:30.626Z,97117.98
2018-03-26T04:38:02.264Z,97119.63
2018-03-26T04:38:33.898Z,97117.06
2018-03-26T04:39:05.527Z,97124.72
2018-03-26T04:39:37.150Z,97122.58
2018-03-26T04:40:08.833Z,97121.69
2018-03-26T04:40:40.453Z,97122.09
2018-03-26T04:41:12.083Z,97121.26
2018-03-26T04:41:43.715Z,97116.58
2018-03-26T04:42:15.345Z,97114.89
2018-03-26T04:42:46.970Z,97115.75
2018-03-26T04:43:18.602Z,97114.89
2018-03-26T04:43:50.230Z,97123.75
2018-03-26T04:44:21.858Z,97116.09
2018-03-26T04:44:53.486Z,97126.30
2018-03-26T04:45:25.114Z,97116.95
2018-03-26T04:45:56.749Z,97123.25
2018-03-26T04:46:28.379Z,97124.16
2018-03-26T04:47:00.011Z,97124.59
2018-03-26T04:47:31.686Z,97121.20
2018-03-26T04:48:03.319Z,97120.69
2018-03-26T04:48:34.955Z,97121.47
2018-03-26T04:49:06.586Z,97122.30
2018-03-26T04:49:38.213Z,97122.73
2018-03-26T04:50:09.833Z,97126.48
2018-03-26T04:50:41.461Z,97120.96
2018-03-26T04:51:13.139Z,97125.63
2018-03-26T04:51:44.769Z,97121.04
2018-03-26T04:52:16.398Z,97126.88
2018-03-26T04:52:48.021Z,97132.34
2018-03-26T04:53:19.652Z,97129.85
2018-03-26T04:53:51.309Z,97126.91
2018-03-26T04:54:22.942Z,97129.80
2018-03-26T04:54:54.570Z,97129.38
2018-03-26T04:55:26.194Z,97131.08
2018-03-26T04:55:57.831Z,97125.47
2018-03-26T04:56:29.507Z,97133.17
2018-03-26T04:57:01.138Z,97126.41
2018-03-26T04:57:32.762Z,97131.05
2018-03-26T04:58:04.390Z,97123.86
2018-03-26T04:58:36.018Z,97126.38
2018-03-26T04:59:07.642Z,97127.16
2018-03-26T04:59:39.271Z,97130.63
2018-03-26T05:00:10.894Z,97123.41
2018-03-26T05:00:42.518Z,97129.77
2018-03-26T05:01:14.147Z,97127.23
2018-03-26T05:01:45.825Z,97125.46
2018-03-26T05:02:17.458Z,97131.03
2018-03-26T05:02:49.082Z,97128.44
2018-03-26T05:03:20.723Z,97137.78
2018-03-26T05:03:52.351Z,97132.67
2018-03-26T05:04:23.977Z,97133.51
2018-03-26T05:04:55.612Z,97130.11
2018-03-26T05:05:27.242Z,97129.70
2018-03-26T05:05:58.870Z,97129.80
2018-03-26T05:06:30.519Z,97130.19
2018-03-26T05:07:02.198Z,97129.34
2018-03-26T05:07:33.827Z,97129.34
2018-03-26T05:08:05.466Z,97128.84
2018-03-26T05:08:37.111Z,97126.66
2018-03-26T05:09:08.742Z,97127.48
2018-03-26T05:09:40.370Z,97128.70
2018-03-26T05:10:12.004Z,97131.66
2018-03-26T05:10:43.630Z,97130.41
2018-03-26T05:11:15.283Z,97130.06
2018-03-26T05:11:46.906Z,97132.67
2018-03-26T05:12:18.529Z,97130.48
2018-03-26T05:12:50.182Z,97128.35
2018-03-26T05:13:21.805Z,97132.61
2018-03-26T05:13:53.430Z,97124.17
2018-03-26T05:14:25.064Z,97124.17
2018-03-26T05:14:56.694Z,97133.52
2018-03-26T05:15:28.323Z,97134.30
2018-03-26T05:15:59.963Z,97128.41
2018-03-26T05:16:31.591Z,97132.31
2018-03-26T05:17:03.218Z,97135.65
2018-03-26T05:17:34.844Z,97131.84
2018-03-26T05:18:06.490Z,97134.86
2018-03-26T05:18:38.114Z,97134.00
2018-03-26T05:19:09.738Z,97133.10
2018-03-26T05:19:41.363Z,97133.12
2018-03-26T05:20:13.043Z,97131.47
2018-03-26T05:20:44.669Z,97132.40
2018-03-26T05:21:16.295Z,97132.35
2018-03-26T05:21:47.918Z,97128.92
2018-03-26T05:22:19.542Z,97134.09
2018-03-26T05:22:51.171Z,97137.45
2018-03-26T05:23:22.799Z,97135.03
2018-03-26T05:23:54.430Z,97134.63
2018-03-26T05:24:26.062Z,97138.44
2018-03-26T05:24:57.691Z,97135.89
2018-03-26T05:25:29.383Z,97138.45
2018-03-26T05:26:01.018Z,97139.70
2018-03-26T05:26:32.641Z,97140.56
2018-03-26T05:27:04.266Z,97136.75
2018-03-26T05:27:35.898Z,97140.58
2018-03-26T05:28:07.530Z,97130.87
2018-03-26T05:28:39.154Z,97138.09
2018-03-26T05:29:10.782Z,97137.61
2018-03-26T05:29:42.406Z,97137.25
2018-03-26T05:30:14.047Z,97141.92
2018-03-26T05:30:45.713Z,97142.83
2018-03-26T05:31:17.343Z,97142.05
2018-03-26T05:31:48.966Z,97142.48
2018-03-26T05:32:20.597Z,97144.54
2018-03-26T05:32:52.226Z,97141.17
2018-03-26T05:33:23.857Z,97144.13
2018-03-26T05:33:55.483Z,97140.28
2018-03-26T05:34:27.114Z,97141.65
2018-03-26T05:34:58.781Z,97145.41
2018-03-26T05:35:30.405Z,97140.36
2018-03-26T05:36:02.035Z,97146.27
2018-03-26T05:36:33.671Z,97145.95
2018-03-26T05:37:05.293Z,97148.50
2018-03-26T05:37:36.926Z,97143.83
2018-03-26T05:38:08.554Z,97148.84
2018-03-26T05:38:40.190Z,97149.27
2018-03-26T05:39:11.858Z,97148.84
2018-03-26T05:39:43.486Z,97144.68
2018-03-26T05:40:15.110Z,97158.31
2018-03-26T05:40:46.737Z,97148.14
2018-03-26T05:41:18.367Z,97158.33
2018-03-26T05:41:49.990Z,97154.52
2018-03-26T05:42:21.613Z,97149.84
2018-03-26T05:42:53.243Z,97155.80
2018-03-26T05:43:24.915Z,97159.13
2018-03-26T05:43:56.542Z,97158.34
2018-03-26T05:44:28.173Z,97165.96
2018-03-26T05:44:59.798Z,97163.41
2018-03-26T05:45:31.426Z,97163.84
2018-03-26T05:46:03.058Z,97163.52
2018-03-26T05:46:34.687Z,97162.66
2018-03-26T05:47:06.318Z,97163.94
2018-03-26T05:47:37.993Z,97170.29
2018-03-26T05:48:09.630Z,97161.87
2018-03-26T05:48:41.259Z,97162.24
2018-03-26T05:49:12.935Z,97156.30
2018-03-26T05:49:44.566Z,97161.39
2018-03-26T05:50:16.190Z,97161.38
2018-03-26T05:50:47.814Z,97160.53
2018-03-26T05:51:19.440Z,97160.16
2018-03-26T05:51:51.066Z,97158.05
2018-03-26T05:52:22.694Z,97161.45
2018-03-26T05:52:54.322Z,97156.80
2018-03-26T05:53:25.946Z,97164.02
2018-03-26T05:53:57.617Z,97158.97
2018-03-26T05:54:29.242Z,97158.14
2018-03-26T05:55:00.867Z,97166.56
2018-03-26T05:55:32.490Z,97163.59
2018-03-26T05:56:04.118Z,97163.23
2018-03-26T05:56:35.743Z,97167.46
2018-03-26T05:57:07.370Z,97161.97
2018-03-26T05:57:38.997Z,97165.78
2018-03-26T05:58:10.622Z,97162.38
2018-03-26T05:58:42.250Z,97170.45
2018-03-26T05:59:13.873Z,97167.92
2018-03-26T05:59:45.502Z,97172.08
2018-03-26T06:00:17.130Z,97172.50
2018-03-26T06:00:48.755Z,97175.10
2018-03-26T06:01:20.383Z,97167.46
2018-03-26T06:01:52.007Z,97173.76
2018-03-26T06:02:23.634Z,97173.33
2018-03-26T06:02:55.275Z,97171.21
2018-03-26T06:03:26.910Z,97171.21
2018-03-26T06:03:58.550Z,97172.89
2018-03-26T06:04:30.218Z,97170.36
2018-03-26T06:05:01.854Z,97174.59
2018-03-26T06:05:33.482Z,97170.34
2018-03-26T06:06:05.103Z,97169.09
2018-03-26T06:06:36.730Z,97170.73
2018-03-26T06:07:08.354Z,97169.88
2018-03-26T06:07:39.982Z,97169.42
2018-03-26T06:08:11.610Z,97167.69
2018-03-26T06:08:43.234Z,97168.93
2018-03-26T06:09:14.867Z,97168.50
2018-03-26T06:09:46.543Z,97175.21
2018-03-26T06:10:18.174Z,97173.09
2018-03-26T06:10:49.858Z,97172.20
2018-03-26T06:11:21.482Z,97175.16